KHQI

High Island 376

High Island 376, Texas, USA
METAR KHQI 240135Z AUTO 06010KT 9SM CLR 26/25 A3000 RMK A01
Observed Flight Rules
May-24 @ 01:35 UTC (20 minutes ago) Visual Flight Rules
Wind Visibility Clouds
60° at 10 knots 9 miles
  • Clear skies
Temperatures Readings
Current 26°C / 79°F
Dewpoint 25°C / 77°F
Humidity 94%
Altimeter 30" Hg
Pressure 1016 hPa
Elevation 26
METAR KHQI 240135Z AUTO 06010KT 9SM CLR 26/25 A3000 RMK A01
Observed Flight Rules
May-24 @ 01:35 UTC
(20 minutes ago)
VFR
Wind Visibility
60° at 10 knots 9 miles
Clouds
  • Clear skies
Temperature Dewpoint
26°C / 79°F 25°C / 77°F
Humidity Altimeter Pressure
94% 30" Hg 1016 hPa